sensor_id;sensor_type;location;lat;lon;timestamp;pressure;altitude;pressure_sealevel;temperature
66180;BMP280;52986;44.028;20.466;2023-06-24T00:01:28;98222.28;;;23.72
66180;BMP280;52986;44.028;20.466;2023-06-24T00:03:53;98230.16;;;23.63
66180;BMP280;52986;44.028;20.466;2023-06-24T00:06:19;98230.91;;;23.76
66180;BMP280;52986;44.028;20.466;2023-06-24T00:08:46;98239.50;;;23.80
66180;BMP280;52986;44.028;20.466;2023-06-24T00:11:11;98245.31;;;23.90
66180;BMP280;52986;44.028;20.466;2023-06-24T00:13:39;98260.78;;;23.87
66180;BMP280;52986;44.028;20.466;2023-06-24T00:16:04;98262.25;;;23.62
66180;BMP280;52986;44.028;20.466;2023-06-24T00:18:32;98256.78;;;23.62
66180;BMP280;52986;44.028;20.466;2023-06-24T00:20:57;98269.38;;;23.52
66180;BMP280;52986;44.028;20.466;2023-06-24T00:23:23;98272.66;;;23.50
66180;BMP280;52986;44.028;20.466;2023-06-24T00:25:52;98289.69;;;23.43
66180;BMP280;52986;44.028;20.466;2023-06-24T00:28:18;98286.75;;;23.41
66180;BMP280;52986;44.028;20.466;2023-06-24T00:30:44;98296.81;;;23.33
66180;BMP280;52986;44.028;20.466;2023-06-24T00:33:09;98301.13;;;23.29
66180;BMP280;52986;44.028;20.466;2023-06-24T00:35:36;98307.50;;;23.18
66180;BMP280;52986;44.028;20.466;2023-06-24T00:38:03;98299.53;;;23.20
66180;BMP280;52986;44.028;20.466;2023-06-24T00:40:28;98316.09;;;23.09
66180;BMP280;52986;44.028;20.466;2023-06-24T00:42:54;98321.75;;;23.11
66180;BMP280;52986;44.028;20.466;2023-06-24T00:45:20;98320.38;;;23.04
66180;BMP280;52986;44.028;20.466;2023-06-24T00:47:46;98315.34;;;23.08
66180;BMP280;52986;44.028;20.466;2023-06-24T00:50:12;98313.13;;;23.07
66180;BMP280;52986;44.028;20.466;2023-06-24T00:52:37;98304.88;;;23.12
66180;BMP280;52986;44.028;20.466;2023-06-24T00:55:08;98313.13;;;23.07
66180;BMP280;52986;44.028;20.466;2023-06-24T00:57:33;98312.16;;;23.04
66180;BMP280;52986;44.028;20.466;2023-06-24T01:00:04;98317.88;;;23.06
66180;BMP280;52986;44.028;20.466;2023-06-24T01:02:35;98312.16;;;23.04
66180;BMP280;52986;44.028;20.466;2023-06-24T01:05:03;98309.75;;;23.01
66180;BMP280;52986;44.028;20.466;2023-06-24T01:07:33;98307.69;;;22.88
66180;BMP280;52986;44.028;20.466;2023-06-24T01:10:02;98311.72;;;22.87
66180;BMP280;52986;44.028;20.466;2023-06-24T01:12:28;98299.88;;;22.79
66180;BMP280;52986;44.028;20.466;2023-06-24T01:14:53;98286.22;;;22.79
66180;BMP280;52986;44.028;20.466;2023-06-24T01:17:24;98293.06;;;22.86
66180;BMP280;52986;44.028;20.466;2023-06-24T01:33:47;98278.91;;;22.68
66180;BMP280;52986;44.028;20.466;2023-06-24T01:36:15;98280.78;;;22.60
66180;BMP280;52986;44.028;20.466;2023-06-24T01:38:46;98278.53;;;22.59
66180;BMP280;52986;44.028;20.466;2023-06-24T01:41:16;98270.78;;;22.63
66180;BMP280;52986;44.028;20.466;2023-06-24T01:43:44;98276.84;;;22.56
66180;BMP280;52986;44.028;20.466;2023-06-24T01:46:11;98264.75;;;22.51
66180;BMP280;52986;44.028;20.466;2023-06-24T01:48:39;98261.50;;;22.53
66180;BMP280;52986;44.028;20.466;2023-06-24T01:51:18;98259.38;;;22.46
66180;BMP280;52986;44.028;20.466;2023-06-24T01:53:49;98265.50;;;22.52
66180;BMP280;52986;44.028;20.466;2023-06-24T01:56:16;98259.44;;;22.40
66180;BMP280;52986;44.028;20.466;2023-06-24T01:58:45;98255.22;;;22.39
66180;BMP280;52986;44.028;20.466;2023-06-24T02:01:12;98255.06;;;22.31
66180;BMP280;52986;44.028;20.466;2023-06-24T02:03:38;98249.06;;;22.14
66180;BMP280;52986;44.028;20.466;2023-06-24T02:06:06;98250.44;;;22.02
66180;BMP280;52986;44.028;20.466;2023-06-24T02:08:33;98256.72;;;21.97
66180;BMP280;52986;44.028;20.466;2023-06-24T02:11:00;98253.19;;;22.02
66180;BMP280;52986;44.028;20.466;2023-06-24T02:13:29;98250.81;;;21.93
66180;BMP280;52986;44.028;20.466;2023-06-24T02:15:57;98257.31;;;21.84
66180;BMP280;52986;44.028;20.466;2023-06-24T02:18:24;98261.38;;;21.78
66180;BMP280;52986;44.028;20.466;2023-06-24T02:20:52;98266.34;;;21.79
66180;BMP280;52986;44.028;20.466;2023-06-24T02:23:17;98269.31;;;21.76
66180;BMP280;52986;44.028;20.466;2023-06-24T02:25:44;98272.06;;;21.76
66180;BMP280;52986;44.028;20.466;2023-06-24T02:28:10;98269.56;;;21.78
66180;BMP280;52986;44.028;20.466;2023-06-24T02:30:38;98270.41;;;21.91
66180;BMP280;52986;44.028;20.466;2023-06-24T02:33:03;98287.53;;;21.92
66180;BMP280;52986;44.028;20.466;2023-06-24T02:35:29;98294.34;;;21.80
66180;BMP280;52986;44.028;20.466;2023-06-24T02:37:54;98293.19;;;21.70
66180;BMP280;52986;44.028;20.466;2023-06-24T02:40:20;98299.97;;;21.63
66180;BMP280;52986;44.028;20.466;2023-06-24T02:42:45;98295.78;;;21.56
66180;BMP280;52986;44.028;20.466;2023-06-24T02:45:11;98296.03;;;21.58
66180;BMP280;52986;44.028;20.466;2023-06-24T02:47:37;98301.94;;;21.62
66180;BMP280;52986;44.028;20.466;2023-06-24T02:50:05;98292.69;;;21.71
66180;BMP280;52986;44.028;20.466;2023-06-24T02:52:33;98290.94;;;21.74
66180;BMP280;52986;44.028;20.466;2023-06-24T02:54:59;98287.91;;;21.77
66180;BMP280;52986;44.028;20.466;2023-06-24T02:57:25;98283.78;;;21.71
66180;BMP280;52986;44.028;20.466;2023-06-24T02:59:51;98284.31;;;21.63
66180;BMP280;52986;44.028;20.466;2023-06-24T03:02:17;98280.13;;;21.62
66180;BMP280;52986;44.028;20.466;2023-06-24T03:04:43;98281.81;;;21.65
66180;BMP280;52986;44.028;20.466;2023-06-24T03:07:10;98293.97;;;21.64
66180;BMP280;52986;44.028;20.466;2023-06-24T03:09:36;98297.84;;;21.50
66180;BMP280;52986;44.028;20.466;2023-06-24T03:12:01;98280.00;;;21.49
66180;BMP280;52986;44.028;20.466;2023-06-24T03:14:27;98285.47;;;21.49
66180;BMP280;52986;44.028;20.466;2023-06-24T03:16:52;98289.13;;;21.52
66180;BMP280;52986;44.028;20.466;2023-06-24T03:19:18;98282.53;;;21.42
66180;BMP280;52986;44.028;20.466;2023-06-24T03:21:43;98281.56;;;21.39
66180;BMP280;52986;44.028;20.466;2023-06-24T03:24:08;98274.50;;;21.25
66180;BMP280;52986;44.028;20.466;2023-06-24T03:26:35;98272.06;;;21.16
66180;BMP280;52986;44.028;20.466;2023-06-24T03:29:01;98269.59;;;21.18
66180;BMP280;52986;44.028;20.466;2023-06-24T03:31:27;98266.13;;;21.17
66180;BMP280;52986;44.028;20.466;2023-06-24T03:33:52;98268.09;;;21.17
66180;BMP280;52986;44.028;20.466;2023-06-24T03:36:17;98272.31;;;21.18
66180;BMP280;52986;44.028;20.466;2023-06-24T03:38:43;98269.50;;;21.29
66180;BMP280;52986;44.028;20.466;2023-06-24T03:41:08;98263.44;;;21.42
66180;BMP280;52986;44.028;20.466;2023-06-24T03:43:34;98269.84;;;21.50
66180;BMP280;52986;44.028;20.466;2023-06-24T03:45:59;98267.25;;;21.63
66180;BMP280;52986;44.028;20.466;2023-06-24T03:48:25;98259.91;;;21.77
66180;BMP280;52986;44.028;20.466;2023-06-24T03:50:51;98256.16;;;21.80
66180;BMP280;52986;44.028;20.466;2023-06-24T03:53:16;98269.69;;;21.91
66180;BMP280;52986;44.028;20.466;2023-06-24T03:55:41;98260.84;;;22.03
66180;BMP280;52986;44.028;20.466;2023-06-24T03:58:07;98253.38;;;22.28
66180;BMP280;52986;44.028;20.466;2023-06-24T04:00:33;98253.81;;;22.32
66180;BMP280;52986;44.028;20.466;2023-06-24T04:02:59;98256.75;;;22.34
66180;BMP280;52986;44.028;20.466;2023-06-24T04:05:26;98252.63;;;22.28
66180;BMP280;52986;44.028;20.466;2023-06-24T04:07:51;98251.53;;;22.36
66180;BMP280;52986;44.028;20.466;2023-06-24T04:10:17;98258.63;;;22.45
66180;BMP280;52986;44.028;20.466;2023-06-24T04:12:43;98257.34;;;22.46
66180;BMP280;52986;44.028;20.466;2023-06-24T04:15:09;98266.06;;;22.45
66180;BMP280;52986;44.028;20.466;2023-06-24T04:17:34;98274.47;;;22.47
66180;BMP280;52986;44.028;20.466;2023-06-24T04:20:00;98281.13;;;22.51
66180;BMP280;52986;44.028;20.466;2023-06-24T04:22:27;98277.81;;;22.58
66180;BMP280;52986;44.028;20.466;2023-06-24T04:24:52;98277.63;;;22.51
66180;BMP280;52986;44.028;20.466;2023-06-24T04:27:17;98270.97;;;22.52
66180;BMP280;52986;44.028;20.466;2023-06-24T04:29:43;98283.22;;;22.64
66180;BMP280;52986;44.028;20.466;2023-06-24T04:32:08;98280.38;;;22.69
66180;BMP280;52986;44.028;20.466;2023-06-24T04:34:34;98278.81;;;22.74
66180;BMP280;52986;44.028;20.466;2023-06-24T04:36:59;98284.88;;;22.86
66180;BMP280;52986;44.028;20.466;2023-06-24T04:39:24;98292.16;;;22.96
66180;BMP280;52986;44.028;20.466;2023-06-24T04:41:50;98276.78;;;23.12
66180;BMP280;52986;44.028;20.466;2023-06-24T04:44:15;98276.91;;;23.20
66180;BMP280;52986;44.028;20.466;2023-06-24T04:46:41;98272.06;;;23.26
66180;BMP280;52986;44.028;20.466;2023-06-24T04:49:06;98268.72;;;23.33
66180;BMP280;52986;44.028;20.466;2023-06-24T04:51:32;98265.09;;;23.43
66180;BMP280;52986;44.028;20.466;2023-06-24T04:53:58;98269.16;;;23.37
66180;BMP280;52986;44.028;20.466;2023-06-24T04:56:23;98274.81;;;23.26
66180;BMP280;52986;44.028;20.466;2023-06-24T04:58:49;98273.22;;;23.17
66180;BMP280;52986;44.028;20.466;2023-06-24T05:01:15;98278.56;;;23.09
66180;BMP280;52986;44.028;20.466;2023-06-24T05:03:40;98265.84;;;23.12
66180;BMP280;52986;44.028;20.466;2023-06-24T05:06:06;98263.69;;;23.24
66180;BMP280;52986;44.028;20.466;2023-06-24T05:08:31;98255.09;;;23.14
66180;BMP280;52986;44.028;20.466;2023-06-24T05:10:56;98253.38;;;23.30
66180;BMP280;52986;44.028;20.466;2023-06-24T05:13:23;98258.69;;;23.54
66180;BMP280;52986;44.028;20.466;2023-06-24T05:15:48;98267.09;;;23.56
66180;BMP280;52986;44.028;20.466;2023-06-24T05:18:13;98276.53;;;23.42
66180;BMP280;52986;44.028;20.466;2023-06-24T05:20:39;98276.50;;;23.29
66180;BMP280;52986;44.028;20.466;2023-06-24T05:23:04;98271.88;;;23.24
66180;BMP280;52986;44.028;20.466;2023-06-24T05:25:30;98268.78;;;23.14
66180;BMP280;52986;44.028;20.466;2023-06-24T05:27:55;98277.09;;;23.22
66180;BMP280;52986;44.028;20.466;2023-06-24T05:30:20;98288.31;;;23.37
66180;BMP280;52986;44.028;20.466;2023-06-24T05:32:46;98287.91;;;23.46
66180;BMP280;52986;44.028;20.466;2023-06-24T05:35:12;98302.88;;;23.58
66180;BMP280;52986;44.028;20.466;2023-06-24T05:37:37;98309.59;;;23.57
66180;BMP280;52986;44.028;20.466;2023-06-24T05:40:03;98309.72;;;23.65
66180;BMP280;52986;44.028;20.466;2023-06-24T05:42:30;98315.31;;;23.85
66180;BMP280;52986;44.028;20.466;2023-06-24T05:44:55;98315.72;;;24.03
66180;BMP280;52986;44.028;20.466;2023-06-24T05:47:21;98324.16;;;24.05
66180;BMP280;52986;44.028;20.466;2023-06-24T05:49:46;98327.41;;;24.16
66180;BMP280;52986;44.028;20.466;2023-06-24T05:52:12;98323.31;;;24.23
66180;BMP280;52986;44.028;20.466;2023-06-24T05:54:37;98328.34;;;24.19
66180;BMP280;52986;44.028;20.466;2023-06-24T05:57:03;98324.91;;;24.05
66180;BMP280;52986;44.028;20.466;2023-06-24T05:59:31;98324.69;;;24.03
66180;BMP280;52986;44.028;20.466;2023-06-24T06:01:57;98324.59;;;24.09
66180;BMP280;52986;44.028;20.466;2023-06-24T06:04:22;98335.19;;;23.99
66180;BMP280;52986;44.028;20.466;2023-06-24T06:06:48;98325.84;;;23.95
66180;BMP280;52986;44.028;20.466;2023-06-24T06:09:13;98324.06;;;23.97
66180;BMP280;52986;44.028;20.466;2023-06-24T06:11:38;98327.63;;;23.92
66180;BMP280;52986;44.028;20.466;2023-06-24T06:14:04;98336.69;;;24.00
66180;BMP280;52986;44.028;20.466;2023-06-24T06:16:29;98333.44;;;24.15
66180;BMP280;52986;44.028;20.466;2023-06-24T06:18:54;98345.53;;;24.19
66180;BMP280;52986;44.028;20.466;2023-06-24T06:21:20;98347.97;;;24.23
66180;BMP280;52986;44.028;20.466;2023-06-24T06:23:45;98346.69;;;24.11
66180;BMP280;52986;44.028;20.466;2023-06-24T06:26:10;98338.69;;;23.86
66180;BMP280;52986;44.028;20.466;2023-06-24T06:28:36;98334.66;;;23.74
66180;BMP280;52986;44.028;20.466;2023-06-24T06:31:01;98340.03;;;23.67
66180;BMP280;52986;44.028;20.466;2023-06-24T06:33:26;98343.91;;;23.71
66180;BMP280;52986;44.028;20.466;2023-06-24T06:35:52;98340.88;;;23.88
66180;BMP280;52986;44.028;20.466;2023-06-24T06:38:17;98338.13;;;23.75
66180;BMP280;52986;44.028;20.466;2023-06-24T06:40:42;98338.03;;;23.67
66180;BMP280;52986;44.028;20.466;2023-06-24T06:43:08;98342.13;;;23.61
66180;BMP280;52986;44.028;20.466;2023-06-24T06:45:33;98341.06;;;23.64
66180;BMP280;52986;44.028;20.466;2023-06-24T06:47:59;98342.19;;;23.42
66180;BMP280;52986;44.028;20.466;2023-06-24T06:50:24;98342.59;;;23.46
66180;BMP280;52986;44.028;20.466;2023-06-24T06:52:49;98341.75;;;23.38
66180;BMP280;52986;44.028;20.466;2023-06-24T06:55:15;98334.00;;;23.55
66180;BMP280;52986;44.028;20.466;2023-06-24T06:57:40;98323.47;;;23.59
66180;BMP280;52986;44.028;20.466;2023-06-24T07:00:06;98325.16;;;23.49
66180;BMP280;52986;44.028;20.466;2023-06-24T07:02:31;98319.81;;;23.57
66180;BMP280;52986;44.028;20.466;2023-06-24T07:04:57;98320.09;;;23.53
66180;BMP280;52986;44.028;20.466;2023-06-24T07:07:22;98317.25;;;23.45
66180;BMP280;52986;44.028;20.466;2023-06-24T07:09:47;98332.34;;;23.20
66180;BMP280;52986;44.028;20.466;2023-06-24T07:12:13;98330.25;;;23.26
66180;BMP280;52986;44.028;20.466;2023-06-24T07:14:39;98337.38;;;23.29
66180;BMP280;52986;44.028;20.466;2023-06-24T07:17:04;98347.84;;;23.31
66180;BMP280;52986;44.028;20.466;2023-06-24T07:19:30;98357.50;;;23.32
66180;BMP280;52986;44.028;20.466;2023-06-24T07:21:55;98363.06;;;23.26
66180;BMP280;52986;44.028;20.466;2023-06-24T07:24:21;98367.75;;;23.12
66180;BMP280;52986;44.028;20.466;2023-06-24T07:26:46;98373.03;;;23.05
66180;BMP280;52986;44.028;20.466;2023-06-24T07:29:11;98371.38;;;23.02
66180;BMP280;52986;44.028;20.466;2023-06-24T07:31:37;98372.69;;;22.95
66180;BMP280;52986;44.028;20.466;2023-06-24T07:34:02;98376.91;;;22.96
66180;BMP280;52986;44.028;20.466;2023-06-24T07:36:28;98375.63;;;22.97
66180;BMP280;52986;44.028;20.466;2023-06-24T07:38:53;98371.22;;;22.94
66180;BMP280;52986;44.028;20.466;2023-06-24T07:41:19;98362.63;;;23.03
66180;BMP280;52986;44.028;20.466;2023-06-24T07:43:44;98355.47;;;23.00
66180;BMP280;52986;44.028;20.466;2023-06-24T07:46:09;98347.28;;;23.00
66180;BMP280;52986;44.028;20.466;2023-06-24T07:48:35;98356.00;;;22.99
66180;BMP280;52986;44.028;20.466;2023-06-24T07:51:00;98362.09;;;23.05
66180;BMP280;52986;44.028;20.466;2023-06-24T07:53:26;98373.28;;;23.07
66180;BMP280;52986;44.028;20.466;2023-06-24T07:55:51;98370.63;;;23.01
66180;BMP280;52986;44.028;20.466;2023-06-24T07:58:16;98371.72;;;23.11
66180;BMP280;52986;44.028;20.466;2023-06-24T08:00:44;98387.16;;;23.09
66180;BMP280;52986;44.028;20.466;2023-06-24T08:03:09;98399.50;;;22.97
66180;BMP280;52986;44.028;20.466;2023-06-24T08:05:35;98405.19;;;22.80
66180;BMP280;52986;44.028;20.466;2023-06-24T08:08:00;98416.16;;;22.74
66180;BMP280;52986;44.028;20.466;2023-06-24T08:10:26;98426.16;;;22.72
66180;BMP280;52986;44.028;20.466;2023-06-24T08:12:57;98431.16;;;22.68
66180;BMP280;52986;44.028;20.466;2023-06-24T08:15:22;98438.91;;;22.64
66180;BMP280;52986;44.028;20.466;2023-06-24T08:17:54;98438.38;;;22.65
66180;BMP280;52986;44.028;20.466;2023-06-24T08:20:21;98438.00;;;22.56
66180;BMP280;52986;44.028;20.466;2023-06-24T08:22:46;98452.44;;;22.51
66180;BMP280;52986;44.028;20.466;2023-06-24T08:25:12;98458.66;;;22.51
66180;BMP280;52986;44.028;20.466;2023-06-24T08:27:37;98463.81;;;22.55
66180;BMP280;52986;44.028;20.466;2023-06-24T08:30:07;98459.44;;;22.46
66180;BMP280;52986;44.028;20.466;2023-06-24T08:32:33;98447.28;;;22.47
66180;BMP280;52986;44.028;20.466;2023-06-24T08:34:58;98435.50;;;22.58
66180;BMP280;52986;44.028;20.466;2023-06-24T08:37:23;98435.94;;;22.62
66180;BMP280;52986;44.028;20.466;2023-06-24T08:39:49;98446.66;;;22.60
66180;BMP280;52986;44.028;20.466;2023-06-24T08:42:14;98454.38;;;22.56
66180;BMP280;52986;44.028;20.466;2023-06-24T08:44:40;98454.78;;;22.65
66180;BMP280;52986;44.028;20.466;2023-06-24T08:47:05;98459.94;;;22.69
66180;BMP280;52986;44.028;20.466;2023-06-24T08:49:32;98453.75;;;22.68
66180;BMP280;52986;44.028;20.466;2023-06-24T08:52:04;98451.69;;;22.74
66180;BMP280;52986;44.028;20.466;2023-06-24T08:54:35;98451.28;;;22.89
66180;BMP280;52986;44.028;20.466;2023-06-24T08:57:02;98451.16;;;23.00
66180;BMP280;52986;44.028;20.466;2023-06-24T08:59:31;98455.34;;;23.01
66180;BMP280;52986;44.028;20.466;2023-06-24T09:01:56;98452.81;;;23.03
66180;BMP280;52986;44.028;20.466;2023-06-24T09:04:21;98454.56;;;23.06
66180;BMP280;52986;44.028;20.466;2023-06-24T09:06:47;98454.56;;;23.06
66180;BMP280;52986;44.028;20.466;2023-06-24T09:09:19;98459.56;;;23.02
66180;BMP280;52986;44.028;20.466;2023-06-24T09:11:56;98458.00;;;22.88
66180;BMP280;52986;44.028;20.466;2023-06-24T09:14:23;98458.94;;;22.72
66180;BMP280;52986;44.028;20.466;2023-06-24T09:16:57;98464.63;;;22.50
66180;BMP280;52986;44.028;20.466;2023-06-24T09:19:24;98463.72;;;22.42
66180;BMP280;52986;44.028;20.466;2023-06-24T09:21:50;98452.69;;;22.28
66180;BMP280;52986;44.028;20.466;2023-06-24T09:24:18;98433.66;;;22.17
66180;BMP280;52986;44.028;20.466;2023-06-24T09:26:43;98423.00;;;22.14
66180;BMP280;52986;44.028;20.466;2023-06-24T09:29:11;98409.41;;;22.08
66180;BMP280;52986;44.028;20.466;2023-06-24T09:31:49;98392.59;;;22.04
66180;BMP280;52986;44.028;20.466;2023-06-24T09:34:15;98387.72;;;21.97
66180;BMP280;52986;44.028;20.466;2023-06-24T09:36:44;98385.00;;;21.91
66180;BMP280;52986;44.028;20.466;2023-06-24T09:39:10;98376.69;;;21.78
66180;BMP280;52986;44.028;20.466;2023-06-24T09:41:35;98387.44;;;21.65
66180;BMP280;52986;44.028;20.466;2023-06-24T09:44:01;98381.53;;;21.61
66180;BMP280;52986;44.028;20.466;2023-06-24T09:46:29;98392.03;;;21.51
66180;BMP280;52986;44.028;20.466;2023-06-24T09:48:55;98394.59;;;21.38
66180;BMP280;52986;44.028;20.466;2023-06-24T09:51:21;98418.84;;;21.36
66180;BMP280;52986;44.028;20.466;2023-06-24T09:53:48;98410.53;;;21.23
66180;BMP280;52986;44.028;20.466;2023-06-24T09:56:18;98405.56;;;21.27
66180;BMP280;52986;44.028;20.466;2023-06-24T09:58:44;98416.41;;;21.38
66180;BMP280;52986;44.028;20.466;2023-06-24T10:01:11;98402.00;;;21.43
66180;BMP280;52986;44.028;20.466;2023-06-24T10:03:37;98389.06;;;21.49
66180;BMP280;52986;44.028;20.466;2023-06-24T10:06:05;98374.38;;;21.58
66180;BMP280;52986;44.028;20.466;2023-06-24T10:08:32;98381.72;;;21.69
66180;BMP280;52986;44.028;20.466;2023-06-24T10:10:59;98377.53;;;21.68
66180;BMP280;52986;44.028;20.466;2023-06-24T10:13:25;98372.28;;;21.70
66180;BMP280;52986;44.028;20.466;2023-06-24T10:15:51;98369.59;;;21.64
66180;BMP280;52986;44.028;20.466;2023-06-24T10:18:46;98347.72;;;21.75
66180;BMP280;52986;44.028;20.466;2023-06-24T10:21:12;98334.59;;;21.74
66180;BMP280;52986;44.028;20.466;2023-06-24T10:23:53;98336.00;;;21.80
66180;BMP280;52986;44.028;20.466;2023-06-24T10:26:26;98368.00;;;21.80
66180;BMP280;52986;44.028;20.466;2023-06-24T10:29:13;98376.97;;;21.75
66180;BMP280;52986;44.028;20.466;2023-06-24T10:34:24;98380.22;;;21.73
66180;BMP280;52986;44.028;20.466;2023-06-24T10:36:56;98395.63;;;21.65
66180;BMP280;52986;44.028;20.466;2023-06-24T10:44:51;98379.00;;;21.69
66180;BMP280;52986;44.028;20.466;2023-06-24T10:47:17;98352.53;;;21.88
66180;BMP280;52986;44.028;20.466;2023-06-24T10:49:43;98339.50;;;22.05
66180;BMP280;52986;44.028;20.466;2023-06-24T10:52:12;98336.41;;;22.14
66180;BMP280;52986;44.028;20.466;2023-06-24T10:54:38;98334.06;;;22.24
66180;BMP280;52986;44.028;20.466;2023-06-24T10:57:05;98356.19;;;22.20
66180;BMP280;52986;44.028;20.466;2023-06-24T11:00:02;98391.38;;;21.99
66180;BMP280;52986;44.028;20.466;2023-06-24T11:02:28;98414.13;;;21.78
66180;BMP280;52986;44.028;20.466;2023-06-24T11:04:57;98401.28;;;21.73
66180;BMP280;52986;44.028;20.466;2023-06-24T11:07:24;98412.38;;;21.80
66180;BMP280;52986;44.028;20.466;2023-06-24T11:09:53;98424.03;;;21.81
66180;BMP280;52986;44.028;20.466;2023-06-24T11:12:23;98393.41;;;21.99
66180;BMP280;52986;44.028;20.466;2023-06-24T11:14:48;98397.22;;;22.15
66180;BMP280;52986;44.028;20.466;2023-06-24T11:17:14;98395.56;;;22.30
66180;BMP280;52986;44.028;20.466;2023-06-24T11:19:39;98392.19;;;22.43
66180;BMP280;52986;44.028;20.466;2023-06-24T11:22:07;98384.84;;;22.57
66180;BMP280;52986;44.028;20.466;2023-06-24T11:24:33;98379.47;;;22.70
66180;BMP280;52986;44.028;20.466;2023-06-24T11:26:58;98385.91;;;22.72
66180;BMP280;52986;44.028;20.466;2023-06-24T11:29:24;98390.09;;;22.73
66180;BMP280;52986;44.028;20.466;2023-06-24T11:31:50;98384.34;;;22.77
66180;BMP280;52986;44.028;20.466;2023-06-24T11:34:16;98374.84;;;23.02
66180;BMP280;52986;44.028;20.466;2023-06-24T11:36:42;98377.34;;;23.51
66180;BMP280;52986;44.028;20.466;2023-06-24T11:39:07;98378.91;;;23.78
66180;BMP280;52986;44.028;20.466;2023-06-24T11:41:33;98369.16;;;23.77
66180;BMP280;52986;44.028;20.466;2023-06-24T11:43:59;98352.75;;;23.77
66180;BMP280;52986;44.028;20.466;2023-06-24T11:46:28;98356.38;;;23.72
66180;BMP280;52986;44.028;20.466;2023-06-24T11:49:06;98365.22;;;24.05
66180;BMP280;52986;44.028;20.466;2023-06-24T11:51:32;98376.69;;;24.16
66180;BMP280;52986;44.028;20.466;2023-06-24T11:54:02;98379.75;;;23.86
66180;BMP280;52986;44.028;20.466;2023-06-24T11:56:54;98386.84;;;23.31
66180;BMP280;52986;44.028;20.466;2023-06-24T11:59:23;98388.41;;;23.27
66180;BMP280;52986;44.028;20.466;2023-06-24T12:01:55;98379.16;;;23.30
66180;BMP280;52986;44.028;20.466;2023-06-24T12:04:26;98384.19;;;23.26
66180;BMP280;52986;44.028;20.466;2023-06-24T12:06:52;98378.72;;;23.26
66180;BMP280;52986;44.028;20.466;2023-06-24T12:09:17;98384.03;;;23.37
66180;BMP280;52986;44.028;20.466;2023-06-24T12:11:43;98384.69;;;23.43
66180;BMP280;52986;44.028;20.466;2023-06-24T12:14:08;98383.41;;;23.44
66180;BMP280;52986;44.028;20.466;2023-06-24T12:16:34;98386.81;;;23.50
66180;BMP280;52986;44.028;20.466;2023-06-24T12:18:59;98396.09;;;23.60
66180;BMP280;52986;44.028;20.466;2023-06-24T12:21:24;98387.38;;;23.62
66180;BMP280;52986;44.028;20.466;2023-06-24T12:23:50;98378.56;;;23.69
66180;BMP280;52986;44.028;20.466;2023-06-24T12:26:15;98385.19;;;23.73
66180;BMP280;52986;44.028;20.466;2023-06-24T12:28:41;98376.78;;;23.84
66180;BMP280;52986;44.028;20.466;2023-06-24T12:31:06;98377.81;;;23.81
66180;BMP280;52986;44.028;20.466;2023-06-24T12:33:32;98377.31;;;23.83
66180;BMP280;52986;44.028;20.466;2023-06-24T12:35:58;98378.25;;;23.85
66180;BMP280;52986;44.028;20.466;2023-06-24T12:38:24;98379.84;;;23.94
66180;BMP280;52986;44.028;20.466;2023-06-24T12:40:49;98376.69;;;24.16
66180;BMP280;52986;44.028;20.466;2023-06-24T12:43:15;98379.09;;;24.07
66180;BMP280;52986;44.028;20.466;2023-06-24T12:45:41;98378.06;;;23.97
66180;BMP280;52986;44.028;20.466;2023-06-24T12:48:10;98381.00;;;23.72
66180;BMP280;52986;44.028;20.466;2023-06-24T12:50:36;98387.47;;;23.56
66180;BMP280;52986;44.028;20.466;2023-06-24T12:53:02;98376.13;;;23.33
66180;BMP280;52986;44.028;20.466;2023-06-24T12:55:29;98369.38;;;23.34
66180;BMP280;52986;44.028;20.466;2023-06-24T12:57:54;98372.00;;;23.27
66180;BMP280;52986;44.028;20.466;2023-06-24T13:00:21;98373.31;;;23.39
66180;BMP280;52986;44.028;20.466;2023-06-24T13:02:46;98367.16;;;23.65
66180;BMP280;52986;44.028;20.466;2023-06-24T13:05:12;98374.97;;;23.74
66180;BMP280;52986;44.028;20.466;2023-06-24T13:07:37;98374.44;;;23.75
66180;BMP280;52986;44.028;20.466;2023-06-24T13:10:03;98375.53;;;23.72
66180;BMP280;52986;44.028;20.466;2023-06-24T13:12:31;98370.28;;;23.87
66180;BMP280;52986;44.028;20.466;2023-06-24T13:14:57;98375.13;;;23.95
66180;BMP280;52986;44.028;20.466;2023-06-24T13:17:22;98377.13;;;23.94
66180;BMP280;52986;44.028;20.466;2023-06-24T13:19:48;98375.53;;;24.25
66180;BMP280;52986;44.028;20.466;2023-06-24T13:22:13;98371.16;;;24.82
66180;BMP280;52986;44.028;20.466;2023-06-24T13:24:39;98355.13;;;25.07
66180;BMP280;52986;44.028;20.466;2023-06-24T13:27:04;98350.69;;;25.46
66180;BMP280;52986;44.028;20.466;2023-06-24T13:29:29;98349.88;;;25.87
66180;BMP280;52986;44.028;20.466;2023-06-24T13:31:55;98348.25;;;26.19
66180;BMP280;52986;44.028;20.466;2023-06-24T13:34:21;98347.06;;;26.43
66180;BMP280;52986;44.028;20.466;2023-06-24T13:36:46;98353.91;;;26.57
66180;BMP280;52986;44.028;20.466;2023-06-24T13:39:12;98357.78;;;26.70
66180;BMP280;52986;44.028;20.466;2023-06-24T13:41:38;98352.28;;;26.77
66180;BMP280;52986;44.028;20.466;2023-06-24T13:44:04;98356.28;;;26.61
66180;BMP280;52986;44.028;20.466;2023-06-24T13:46:30;98340.31;;;26.44
66180;BMP280;52986;44.028;20.466;2023-06-24T13:48:57;98337.88;;;26.33
66180;BMP280;52986;44.028;20.466;2023-06-24T13:51:23;98334.09;;;26.08
66180;BMP280;52986;44.028;20.466;2023-06-24T13:53:50;98324.19;;;26.05
66180;BMP280;52986;44.028;20.466;2023-06-24T13:56:19;98325.75;;;25.93
66180;BMP280;52986;44.028;20.466;2023-06-24T13:58:45;98309.47;;;25.95
66180;BMP280;52986;44.028;20.466;2023-06-24T14:01:11;98297.09;;;26.01
66180;BMP280;52986;44.028;20.466;2023-06-24T14:03:37;98300.78;;;26.11
66180;BMP280;52986;44.028;20.466;2023-06-24T14:06:03;98296.03;;;26.12
66180;BMP280;52986;44.028;20.466;2023-06-24T14:08:29;98302.59;;;26.09
66180;BMP280;52986;44.028;20.466;2023-06-24T14:10:56;98305.69;;;26.05
66180;BMP280;52986;44.028;20.466;2023-06-24T14:13:22;98304.03;;;26.02
66180;BMP280;52986;44.028;20.466;2023-06-24T14:15:47;98307.50;;;26.03